Time;durP1;ratioP1;P1;durP2;ratioP2;P2;SDS_P1;SDS_P2;PMS_P1;PMS_P2;Temp;Humidity;BMP_temperature;BMP_pressure;BME280_temperature;BME280_humidity;BME280_pressure;Samples;Min_cycle;Max_cycle;Signal;HPM_P1;HPM_P2
2023/12/04 00:01:00;;;;;;;0.30;0.30;;;1.60;99.90;;;;;;5040369;28;20041;-66
2023/12/04 00:03:26;;;;;;;0.95;0.95;;;1.60;99.90;;;;;;5039588;28;20395;-65
2023/12/04 00:05:51;;;;;;;0.20;0.20;;;1.60;99.90;;;;;;5044384;28;20045;-66
2023/12/04 00:08:17;;;;;;;1.42;1.35;;;1.60;99.90;;;;;;5034717;28;20048;-65
2023/12/04 00:10:42;;;;;;;0.68;0.68;;;1.60;99.90;;;;;;5040244;28;20072;-66
2023/12/04 00:13:08;;;;;;;4.13;1.10;;;1.60;99.90;;;;;;5043645;28;20049;-66
2023/12/04 00:15:34;;;;;;;3.63;2.05;;;1.60;99.90;;;;;;5038550;28;20052;-66
2023/12/04 00:18:00;;;;;;;0.93;0.90;;;1.60;99.90;;;;;;5047316;28;20057;-66
2023/12/04 00:20:25;;;;;;;1.88;1.77;;;1.60;99.90;;;;;;5047906;28;20048;-65
2023/12/04 00:22:51;;;;;;;0.10;0.10;;;1.60;99.90;;;;;;5039585;28;20115;-66
2023/12/04 00:25:16;;;;;;;0.32;0.32;;;1.60;99.90;;;;;;5048465;28;20094;-65
2023/12/04 00:27:42;;;;;;;0.10;0.10;;;1.60;99.90;;;;;;5050273;28;20045;-66
2023/12/04 00:30:08;;;;;;;1.85;1.75;;;1.60;99.90;;;;;;5040441;28;20488;-66
2023/12/04 00:32:33;;;;;;;0.20;0.20;;;1.60;99.90;;;;;;5041982;28;20048;-66
2023/12/04 00:34:59;;;;;;;0.20;0.20;;;1.60;99.90;;;;;;5045326;28;20037;-65
2023/12/04 00:37:26;;;;;;;0.28;0.28;;;1.60;99.90;;;;;;5045667;28;20103;-65
2023/12/04 00:39:52;;;;;;;0.20;0.20;;;1.60;99.90;;;;;;5047726;28;20916;-65
2023/12/04 00:42:17;;;;;;;1.55;1.15;;;1.60;99.90;;;;;;5041445;28;20041;-65
2023/12/04 00:44:43;;;;;;;0.10;0.10;;;1.60;99.90;;;;;;5048094;28;20504;-65
2023/12/04 00:47:08;;;;;;;1.30;0.98;;;1.60;99.90;;;;;;5044311;28;20049;-65
2023/12/04 00:49:34;;;;;;;0.40;0.40;;;1.60;99.90;;;;;;5045903;28;20044;-65
2023/12/04 00:51:59;;;;;;;1.08;1.08;;;1.60;99.90;;;;;;5045475;28;20061;-65
2023/12/04 00:54:25;;;;;;;0.73;0.65;;;1.60;99.90;;;;;;5046633;28;20073;-65
2023/12/04 00:56:50;;;;;;;0.20;0.20;;;1.60;99.90;;;;;;5039699;28;20133;-65
2023/12/04 00:59:16;;;;;;;0.17;0.17;;;1.60;99.90;;;;;;5041894;28;20484;-65
2023/12/04 01:01:42;;;;;;;0.47;0.47;;;1.60;99.90;;;;;;5040065;28;20529;-65
2023/12/04 01:04:07;;;;;;;1.35;1.27;;;1.60;99.90;;;;;;5047577;28;20033;-65
2023/12/04 01:06:33;;;;;;;0.65;0.65;;;1.60;99.90;;;;;;5048880;28;20503;-65
2023/12/04 01:08:58;;;;;;;0.10;0.10;;;1.60;99.90;;;;;;5046049;28;20400;-65
2023/12/04 01:11:24;;;;;;;1.13;1.13;;;1.70;99.90;;;;;;5051830;28;20037;-65
2023/12/04 01:13:49;;;;;;;1.25;1.20;;;1.70;99.90;;;;;;5045604;28;20094;-65
2023/12/04 01:16:15;;;;;;;0.85;0.85;;;1.60;99.90;;;;;;5043965;28;20113;-65
2023/12/04 01:18:41;;;;;;;0.32;0.32;;;1.60;99.90;;;;;;5040800;28;20045;-65
2023/12/04 01:21:08;;;;;;;0.50;0.50;;;1.60;99.90;;;;;;5046187;28;20124;-65
2023/12/04 01:23:35;;;;;;;0.85;0.85;;;1.60;99.90;;;;;;5048362;28;20714;-66
2023/12/04 01:26:01;;;;;;;0.30;0.30;;;1.70;99.90;;;;;;5039766;28;20433;-66
2023/12/04 01:28:26;;;;;;;0.45;0.45;;;1.70;99.90;;;;;;5045071;28;20496;-66
2023/12/04 01:30:52;;;;;;;0.52;0.52;;;1.70;99.90;;;;;;5041200;28;20045;-66
2023/12/04 01:33:18;;;;;;;0.45;0.45;;;1.70;99.90;;;;;;5035385;28;20500;-65
2023/12/04 01:35:43;;;;;;;0.13;0.13;;;1.70;99.90;;;;;;5044503;28;20037;-64
2023/12/04 01:38:09;;;;;;;0.95;0.95;;;1.70;99.90;;;;;;5042633;28;20041;-65
2023/12/04 01:40:35;;;;;;;0.82;0.82;;;1.60;99.90;;;;;;5040193;28;20044;-65
2023/12/04 01:43:00;;;;;;;0.20;0.20;;;1.70;99.90;;;;;;5038942;28;20052;-65
2023/12/04 01:45:26;;;;;;;0.68;0.68;;;1.70;99.90;;;;;;5044430;28;20124;-65
2023/12/04 01:47:51;;;;;;;2.35;2.15;;;1.70;99.90;;;;;;5045938;28;20059;-65
2023/12/04 01:50:17;;;;;;;0.30;0.30;;;1.80;99.90;;;;;;5041090;28;20056;-65
2023/12/04 01:52:43;;;;;;;0.40;0.40;;;1.70;99.90;;;;;;5044893;28;20053;-65
2023/12/04 01:55:10;;;;;;;0.57;0.57;;;1.70;99.90;;;;;;5042579;28;20040;-65
2023/12/04 01:57:36;;;;;;;0.10;0.10;;;1.80;99.90;;;;;;5044761;28;20400;-65
2023/12/04 02:00:02;;;;;;;1.48;1.40;;;1.80;99.90;;;;;;5040496;28;20036;-65
2023/12/04 02:02:28;;;;;;;0.28;0.28;;;1.80;99.90;;;;;;5045371;28;20064;-65
2023/12/04 02:04:59;;;;;;;0.88;0.88;;;1.70;99.90;;;;;;5037095;28;20489;-65
2023/12/04 02:07:24;;;;;;;0.55;0.55;;;1.80;99.90;;;;;;5039895;28;20037;-65
2023/12/04 02:09:50;;;;;;;0.65;0.65;;;1.80;99.90;;;;;;5046816;28;20045;-65
2023/12/04 02:12:16;;;;;;;0.73;0.73;;;1.70;99.90;;;;;;5047501;28;20041;-65
2023/12/04 02:14:43;;;;;;;0.35;0.35;;;1.80;99.90;;;;;;5030874;28;20485;-65
2023/12/04 02:17:09;;;;;;;0.90;0.90;;;1.80;99.90;;;;;;5041255;28;20098;-66
2023/12/04 02:19:35;;;;;;;0.90;0.85;;;1.70;99.90;;;;;;5046992;28;20048;-66
2023/12/04 02:22:01;;;;;;;1.05;1.05;;;1.80;99.90;;;;;;5041440;28;20053;-66
2023/12/04 02:24:26;;;;;;;0.85;0.85;;;1.70;99.90;;;;;;5034703;28;20381;-66
2023/12/04 02:27:06;;;;;;;0.45;0.45;;;1.70;99.90;;;;;;5047086;28;20036;-66
2023/12/04 02:29:47;;;;;;;0.30;0.30;;;1.80;99.90;;;;;;5058697;28;20045;-66
2023/12/04 02:32:16;;;;;;;2.13;1.55;;;1.80;99.90;;;;;;5040450;28;20045;-66
2023/12/04 02:34:43;;;;;;;0.20;0.20;;;1.70;99.90;;;;;;5041696;28;20099;-66
2023/12/04 02:37:10;;;;;;;2.47;2.35;;;1.80;99.90;;;;;;5047141;28;20037;-66
2023/12/04 02:39:36;;;;;;;2.15;2.05;;;1.80;99.90;;;;;;5045383;28;20060;-66
2023/12/04 02:42:03;;;;;;;0.35;0.35;;;1.80;99.90;;;;;;5037824;28;20137;-66
2023/12/04 02:44:28;;;;;;;0.98;0.63;;;1.80;99.90;;;;;;5045905;28;20041;-66
2023/12/04 02:46:54;;;;;;;0.65;0.65;;;1.70;99.90;;;;;;5046305;28;20135;-66
2023/12/04 02:49:20;;;;;;;0.45;0.45;;;1.70;99.90;;;;;;5042247;28;20068;-66
2023/12/04 02:51:45;;;;;;;0.57;0.57;;;1.70;99.90;;;;;;5042410;28;20061;-66
2023/12/04 02:54:11;;;;;;;0.10;0.10;;;1.80;99.90;;;;;;5038797;28;20677;-66
2023/12/04 02:56:36;;;;;;;0.30;0.30;;;1.80;99.90;;;;;;5041798;28;20110;-66
2023/12/04 02:59:02;;;;;;;1.20;1.15;;;1.80;99.90;;;;;;5041711;28;20121;-66
2023/12/04 03:01:27;;;;;;;0.52;0.52;;;1.70;99.90;;;;;;5044054;28;20049;-66
2023/12/04 03:03:53;;;;;;;0.60;0.60;;;1.80;99.90;;;;;;5042485;28;20119;-66
2023/12/04 03:06:19;;;;;;;0.20;0.20;;;1.80;99.90;;;;;;5042776;28;20045;-66
2023/12/04 03:08:44;;;;;;;0.60;0.60;;;1.80;99.90;;;;;;5044932;28;20080;-66
2023/12/04 03:11:10;;;;;;;0.32;0.32;;;1.80;99.90;;;;;;5037088;28;20041;-66
2023/12/04 03:13:35;;;;;;;1.95;1.13;;;1.80;99.90;;;;;;5044731;28;20043;-66
2023/12/04 03:16:01;;;;;;;0.10;0.10;;;1.80;99.90;;;;;;5043889;28;22007;-66
2023/12/04 03:18:28;;;;;;;1.75;1.65;;;1.80;99.90;;;;;;5035133;28;20135;-66
2023/12/04 03:20:54;;;;;;;3.97;2.42;;;1.80;99.90;;;;;;5038703;28;20037;-66
2023/12/04 03:23:19;;;;;;;1.02;1.02;;;1.80;99.90;;;;;;5043611;28;20090;-66
2023/12/04 03:25:45;;;;;;;0.17;0.17;;;1.80;99.90;;;;;;5044818;28;20048;-66
2023/12/04 03:28:11;;;;;;;2.25;2.15;;;1.80;99.90;;;;;;5043653;28;20037;-66
2023/12/04 03:30:36;;;;;;;1.30;1.17;;;1.80;99.90;;;;;;5042032;28;20094;-66
2023/12/04 03:33:02;;;;;;;3.42;1.27;;;1.80;99.90;;;;;;5043476;28;20068;-66
2023/12/04 03:35:27;;;;;;;4.13;1.52;;;1.80;99.90;;;;;;5042418;28;20090;-66
2023/12/04 03:37:53;;;;;;;0.17;0.17;;;1.90;99.90;;;;;;5036919;28;20095;-66
2023/12/04 03:40:18;;;;;;;4.13;1.48;;;1.90;99.90;;;;;;5039429;28;20094;-66
2023/12/04 03:42:44;;;;;;;0.40;0.40;;;1.90;99.90;;;;;;5047532;28;20489;-66
2023/12/04 03:45:10;;;;;;;4.25;1.85;;;1.90;99.90;;;;;;5038395;28;20385;-66
2023/12/04 03:47:35;;;;;;;0.25;0.25;;;1.90;99.90;;;;;;5042733;28;20037;-66
2023/12/04 03:50:01;;;;;;;0.20;0.20;;;1.90;99.90;;;;;;5044177;28;20610;-66
2023/12/04 03:52:26;;;;;;;4.03;0.75;;;1.80;99.90;;;;;;5045363;28;20152;-66
2023/12/04 03:54:52;;;;;;;0.73;0.73;;;1.80;99.90;;;;;;5036536;28;20052;-65
2023/12/04 03:57:18;;;;;;;0.25;0.25;;;1.80;99.90;;;;;;5046728;28;20059;-66
2023/12/04 03:59:44;;;;;;;1.50;1.40;;;1.80;99.90;;;;;;5050371;28;20064;-66
2023/12/04 04:02:10;;;;;;;0.70;0.70;;;1.80;99.90;;;;;;5049315;28;20053;-65
2023/12/04 04:04:35;;;;;;;0.10;0.10;;;1.80;99.90;;;;;;5043601;28;20094;-66
2023/12/04 04:07:01;;;;;;;0.80;0.80;;;1.80;99.90;;;;;;5047242;28;20536;-66
2023/12/04 04:09:27;;;;;;;1.50;1.40;;;1.80;99.90;;;;;;5042507;28;20655;-66
2023/12/04 04:11:52;;;;;;;1.75;1.65;;;1.90;99.90;;;;;;5041817;28;20084;-66
2023/12/04 04:14:18;;;;;;;0.20;0.20;;;1.80;99.90;;;;;;5042570;28;20494;-66
2023/12/04 04:16:43;;;;;;;1.55;1.45;;;1.80;99.90;;;;;;5048400;28;20044;-66
2023/12/04 04:19:09;;;;;;;0.20;0.20;;;1.80;99.90;;;;;;5049488;28;20049;-66
2023/12/04 04:21:38;;;;;;;1.10;1.10;;;1.80;99.90;;;;;;5038369;28;20079;-66
2023/12/04 04:24:04;;;;;;;0.10;0.10;;;1.80;99.90;;;;;;5045813;28;20040;-66
2023/12/04 04:26:30;;;;;;;1.65;1.55;;;1.80;99.90;;;;;;5041518;28;20399;-66
2023/12/04 04:28:55;;;;;;;0.35;0.35;;;1.80;99.90;;;;;;5053638;28;20044;-66
2023/12/04 04:31:21;;;;;;;1.60;1.45;;;1.80;99.90;;;;;;5041780;28;20049;-66
2023/12/04 04:33:46;;;;;;;1.00;1.00;;;1.80;99.90;;;;;;5046116;28;20132;-66
2023/12/04 04:36:12;;;;;;;0.85;0.85;;;1.80;99.90;;;;;;5043336;28;20725;-65
2023/12/04 04:38:39;;;;;;;0.60;0.60;;;1.80;99.90;;;;;;5045796;28;20123;-66
2023/12/04 04:41:05;;;;;;;0.20;0.20;;;1.80;99.90;;;;;;5045628;28;20456;-66
2023/12/04 04:43:31;;;;;;;0.45;0.45;;;1.80;99.90;;;;;;5045951;28;20042;-66
2023/12/04 04:45:56;;;;;;;0.10;0.10;;;1.80;99.90;;;;;;5040157;28;20922;-66
2023/12/04 04:48:22;;;;;;;7.45;2.75;;;1.80;99.90;;;;;;5044748;28;20087;-66
2023/12/04 04:50:47;;;;;;;0.85;0.85;;;1.90;99.90;;;;;;5045475;28;20041;-65
2023/12/04 04:53:13;;;;;;;5.93;2.35;;;1.80;99.90;;;;;;5036628;28;20040;-66
2023/12/04 04:55:38;;;;;;;1.10;0.47;;;1.80;99.90;;;;;;5048237;28;20045;-66
2023/12/04 04:58:04;;;;;;;0.77;0.57;;;1.90;99.90;;;;;;5044475;28;20037;-66
2023/12/04 05:00:30;;;;;;;1.05;1.00;;;1.90;99.90;;;;;;5042120;28;20049;-66
2023/12/04 05:02:55;;;;;;;0.10;0.10;;;1.80;99.90;;;;;;5047594;28;20053;-66
2023/12/04 05:05:21;;;;;;;0.52;0.52;;;1.80;99.90;;;;;;5037070;28;20465;-66
2023/12/04 05:07:47;;;;;;;0.55;0.55;;;1.80;99.90;;;;;;5048935;28;20044;-66
2023/12/04 05:10:13;;;;;;;0.75;0.75;;;1.80;99.90;;;;;;5035899;28;20140;-66
2023/12/04 05:12:38;;;;;;;0.25;0.25;;;1.80;99.90;;;;;;5046180;28;20041;-66
2023/12/04 05:15:04;;;;;;;0.20;0.20;;;1.80;99.90;;;;;;5048416;28;20049;-66
2023/12/04 05:17:30;;;;;;;0.60;0.60;;;1.90;99.90;;;;;;5036965;28;20049;-66
2023/12/04 05:19:56;;;;;;;0.73;0.73;;;1.90;99.90;;;;;;5043436;28;20049;-66
2023/12/04 05:22:21;;;;;;;0.40;0.40;;;1.90;99.90;;;;;;5048705;28;20072;-65
2023/12/04 05:24:47;;;;;;;1.40;1.38;;;1.90;99.90;;;;;;5037019;28;20406;-65
2023/12/04 05:27:12;;;;;;;0.88;0.88;;;1.90;99.90;;;;;;5039806;28;20095;-66
2023/12/04 05:29:38;;;;;;;0.50;0.50;;;1.90;99.90;;;;;;5044416;28;20090;-65
2023/12/04 05:32:04;;;;;;;9.73;1.77;;;1.80;99.90;;;;;;5043684;28;20044;-66
2023/12/04 05:34:30;;;;;;;0.20;0.20;;;1.90;99.90;;;;;;5048874;28;20041;-65
2023/12/04 05:36:55;;;;;;;0.57;0.57;;;1.90;99.90;;;;;;5044446;28;20053;-66
2023/12/04 05:39:21;;;;;;;0.57;0.57;;;1.90;99.90;;;;;;5037641;28;20081;-66
2023/12/04 05:41:47;;;;;;;4.78;2.65;;;1.90;99.90;;;;;;5046218;28;20044;-66
2023/12/04 05:44:13;;;;;;;1.30;1.30;;;1.90;99.90;;;;;;5046805;28;20488;-66
2023/12/04 05:46:39;;;;;;;10.27;2.65;;;1.90;99.90;;;;;;5038290;28;20055;-66
2023/12/04 05:49:04;;;;;;;0.43;0.43;;;1.90;99.90;;;;;;5042823;28;20124;-66
2023/12/04 05:51:30;;;;;;;0.22;0.22;;;1.90;99.90;;;;;;5037324;28;20099;-66
2023/12/04 05:53:56;;;;;;;0.30;0.30;;;1.90;99.90;;;;;;5042578;28;20484;-66
2023/12/04 05:56:21;;;;;;;2.15;2.05;;;1.90;99.90;;;;;;5043241;28;20396;-66
2023/12/04 05:58:47;;;;;;;0.60;0.60;;;1.90;99.90;;;;;;5046987;28;20045;-66
2023/12/04 06:01:14;;;;;;;4.20;1.00;;;1.90;99.90;;;;;;5041136;28;20056;-65
2023/12/04 06:03:39;;;;;;;0.20;0.20;;;1.90;99.90;;;;;;5040695;28;20080;-66
2023/12/04 06:06:05;;;;;;;0.10;0.10;;;2.00;99.90;;;;;;5042722;28;20072;-66
2023/12/04 06:08:30;;;;;;;1.00;0.90;;;2.00;99.90;;;;;;5041182;28;20040;-66
2023/12/04 06:10:56;;;;;;;7.38;3.92;;;2.00;99.90;;;;;;5047735;28;20032;-66
2023/12/04 06:13:22;;;;;;;0.13;0.13;;;2.00;99.90;;;;;;5049042;28;20495;-66
2023/12/04 06:15:47;;;;;;;1.48;1.38;;;2.00;99.90;;;;;;5036813;28;20044;-66
2023/12/04 06:18:13;;;;;;;1.42;1.35;;;1.90;99.90;;;;;;5044582;28;20040;-66
2023/12/04 06:20:38;;;;;;;1.02;0.98;;;2.00;99.90;;;;;;5038415;28;20484;-66
2023/12/04 06:23:04;;;;;;;0.35;0.35;;;2.00;99.90;;;;;;5038276;28;20579;-66
2023/12/04 06:25:30;;;;;;;0.57;0.55;;;2.00;99.90;;;;;;5060203;28;20460;-66
2023/12/04 06:27:56;;;;;;;0.20;0.20;;;1.90;99.90;;;;;;5037981;28;20045;-65
2023/12/04 06:30:22;;;;;;;0.30;0.30;;;1.90;99.90;;;;;;5043938;28;20077;-66
2023/12/04 06:32:48;;;;;;;1.55;0.80;;;1.90;99.90;;;;;;5039659;28;20045;-66
2023/12/04 06:35:14;;;;;;;1.65;1.10;;;2.00;99.90;;;;;;5057617;28;20052;-66
2023/12/04 06:37:40;;;;;;;2.78;0.68;;;2.00;99.90;;;;;;5046639;28;20485;-66
2023/12/04 06:40:08;;;;;;;1.77;1.55;;;2.00;99.90;;;;;;5039350;28;20111;-66
2023/12/04 06:42:35;;;;;;;0.50;0.50;;;2.00;99.90;;;;;;5046328;28;20511;-66
2023/12/04 06:45:01;;;;;;;0.85;0.85;;;1.90;99.90;;;;;;5045110;28;20063;-66
2023/12/04 06:47:30;;;;;;;0.40;0.40;;;2.00;99.90;;;;;;5035659;28;20037;-66
2023/12/04 06:49:56;;;;;;;0.40;0.40;;;2.00;99.90;;;;;;5044837;28;20419;-66
2023/12/04 06:52:21;;;;;;;1.02;1.00;;;1.90;99.90;;;;;;5045697;28;20053;-65
2023/12/04 06:54:47;;;;;;;1.90;1.40;;;1.90;99.90;;;;;;5035007;28;20500;-66
2023/12/04 06:57:14;;;;;;;0.38;0.38;;;2.00;99.90;;;;;;5056849;28;20110;-66
2023/12/04 06:59:41;;;;;;;0.57;0.57;;;1.90;99.90;;;;;;5039701;28;20400;-66
2023/12/04 07:02:07;;;;;;;0.40;0.40;;;1.90;99.90;;;;;;5045971;28;20084;-66
2023/12/04 07:04:32;;;;;;;0.98;0.98;;;2.00;99.90;;;;;;5036645;28;20080;-66
2023/12/04 07:07:00;;;;;;;2.75;1.98;;;1.90;99.90;;;;;;5039170;28;20037;-66
2023/12/04 07:09:27;;;;;;;0.55;0.55;;;1.90;99.90;;;;;;5041021;28;20041;-66
2023/12/04 07:11:53;;;;;;;8.77;0.80;;;2.00;99.90;;;;;;5040787;28;20040;-65
2023/12/04 07:14:18;;;;;;;0.50;0.50;;;1.90;99.90;;;;;;5039206;28;20090;-65
2023/12/04 07:16:44;;;;;;;3.60;1.85;;;1.90;99.90;;;;;;5041392;28;20071;-65
2023/12/04 07:19:10;;;;;;;0.40;0.40;;;2.00;99.90;;;;;;5046375;28;20063;-65
2023/12/04 07:21:37;;;;;;;0.82;0.82;;;1.90;99.90;;;;;;5037922;28;20102;-65
2023/12/04 07:24:02;;;;;;;1.50;1.40;;;2.00;99.90;;;;;;5044414;28;20071;-65
2023/12/04 07:26:28;;;;;;;0.30;0.30;;;2.00;99.90;;;;;;5043302;28;20102;-65
2023/12/04 07:28:54;;;;;;;0.28;0.28;;;2.00;99.90;;;;;;5041999;28;20468;-65
2023/12/04 07:31:19;;;;;;;0.30;0.30;;;2.00;99.90;;;;;;5040973;28;20057;-65
2023/12/04 07:33:45;;;;;;;0.47;0.47;;;2.00;99.90;;;;;;5040628;28;20041;-65
2023/12/04 07:36:10;;;;;;;0.52;0.52;;;1.90;99.90;;;;;;5043356;28;20182;-66
2023/12/04 07:38:36;;;;;;;0.75;0.75;;;2.00;99.90;;;;;;5042650;28;20053;-65
2023/12/04 07:41:02;;;;;;;0.30;0.30;;;2.00;99.90;;;;;;5039592;28;20033;-65
2023/12/04 07:43:28;;;;;;;0.75;0.75;;;1.90;99.90;;;;;;5046348;28;20120;-65
2023/12/04 07:45:55;;;;;;;1.02;0.95;;;2.00;99.90;;;;;;5043357;28;20095;-65
2023/12/04 07:48:21;;;;;;;0.17;0.17;;;2.00;99.90;;;;;;5038916;28;20037;-65
2023/12/04 07:50:46;;;;;;;0.10;0.10;;;2.00;99.90;;;;;;5042805;28;20043;-65
2023/12/04 07:53:13;;;;;;;0.28;0.28;;;2.00;99.90;;;;;;5040491;28;20095;-65
2023/12/04 07:55:38;;;;;;;0.63;0.63;;;2.00;99.90;;;;;;5037602;28;20052;-66
2023/12/04 07:58:04;;;;;;;5.03;2.58;;;2.00;99.90;;;;;;5044161;28;20041;-65
2023/12/04 08:00:29;;;;;;;4.47;1.23;;;2.00;99.90;;;;;;5042462;28;20041;-66
2023/12/04 08:02:55;;;;;;;0.47;0.47;;;2.00;99.90;;;;;;5052250;28;20084;-66
2023/12/04 08:05:21;;;;;;;0.20;0.20;;;2.00;99.90;;;;;;5042940;28;20052;-65
2023/12/04 08:07:47;;;;;;;0.82;0.82;;;2.00;99.90;;;;;;5043419;28;20045;-65
2023/12/04 08:10:13;;;;;;;0.43;0.43;;;2.00;99.90;;;;;;5040000;28;20053;-66
2023/12/04 08:12:39;;;;;;;1.50;0.73;;;2.00;99.90;;;;;;5040614;28;20033;-65
2023/12/04 08:15:05;;;;;;;0.10;0.10;;;2.00;99.90;;;;;;5042869;28;20045;-65
2023/12/04 08:17:31;;;;;;;0.20;0.20;;;2.00;99.90;;;;;;5060854;28;20049;-65
2023/12/04 08:19:56;;;;;;;0.52;0.52;;;2.10;99.90;;;;;;5042431;28;20518;-65
2023/12/04 08:22:22;;;;;;;5.88;1.80;;;2.10;99.90;;;;;;5038764;28;20060;-65
2023/12/04 08:24:47;;;;;;;0.20;0.20;;;2.10;99.90;;;;;;5036028;28;20124;-65
2023/12/04 08:27:13;;;;;;;0.73;0.73;;;2.00;99.90;;;;;;5038127;28;20496;-65
2023/12/04 08:29:42;;;;;;;1.55;1.45;;;2.10;99.90;;;;;;5035393;28;20136;-65
2023/12/04 08:32:07;;;;;;;1.85;1.33;;;2.10;99.90;;;;;;5040105;28;20143;-66
2023/12/04 08:34:33;;;;;;;0.10;0.10;;;2.10;99.90;;;;;;5032879;28;20129;-66
2023/12/04 08:36:58;;;;;;;0.10;0.10;;;2.10;99.90;;;;;;5038896;28;20055;-65
2023/12/04 08:39:24;;;;;;;0.10;0.10;;;2.20;99.90;;;;;;5035395;28;20053;-65
2023/12/04 08:41:49;;;;;;;0.35;0.35;;;2.10;99.90;;;;;;5039604;28;20049;-65
2023/12/04 08:44:15;;;;;;;0.90;0.90;;;2.10;99.90;;;;;;5044155;28;20041;-65
2023/12/04 08:46:43;;;;;;;0.15;0.15;;;2.20;99.90;;;;;;5041670;28;20128;-65
2023/12/04 08:49:09;;;;;;;0.10;0.10;;;2.20;99.90;;;;;;5038050;28;20053;-65
2023/12/04 08:51:34;;;;;;;0.82;0.82;;;2.20;99.90;;;;;;5047159;28;20053;-65
2023/12/04 08:54:00;;;;;;;0.20;0.20;;;2.20;99.90;;;;;;5050464;28;20033;-65
2023/12/04 08:56:25;;;;;;;0.35;0.35;;;2.20;99.90;;;;;;5043700;28;20562;-66
2023/12/04 08:58:51;;;;;;;1.20;1.17;;;2.20;99.90;;;;;;5047056;28;20052;-66
2023/12/04 09:01:17;;;;;;;0.10;0.10;;;2.20;99.90;;;;;;5047950;28;20110;-66
2023/12/04 09:03:42;;;;;;;0.10;0.10;;;2.30;99.90;;;;;;5044730;28;20060;-66
2023/12/04 09:06:08;;;;;;;0.57;0.57;;;2.30;99.90;;;;;;5039749;28;20037;-66
2023/12/04 09:08:35;;;;;;;0.10;0.10;;;2.30;99.90;;;;;;5045254;28;20051;-66
2023/12/04 09:11:00;;;;;;;0.20;0.20;;;2.30;99.90;;;;;;5039164;28;20349;-66
2023/12/04 09:13:26;;;;;;;0.50;0.40;;;2.30;99.90;;;;;;5046439;28;20041;-66
2023/12/04 09:15:51;;;;;;;0.73;0.63;;;2.40;99.90;;;;;;5043412;28;20603;-66
2023/12/04 09:18:18;;;;;;;0.10;0.10;;;2.40;99.90;;;;;;5039819;28;20123;-66
2023/12/04 09:20:43;;;;;;;1.00;1.00;;;2.30;99.90;;;;;;5045692;28;20052;-66
2023/12/04 09:23:09;;;;;;;4.10;1.02;;;2.40;99.90;;;;;;5049007;28;20480;-66
2023/12/04 09:25:35;;;;;;;0.28;0.28;;;2.30;99.90;;;;;;5045504;28;20045;-66
2023/12/04 09:28:01;;;;;;;0.28;0.28;;;2.30;99.90;;;;;;5054427;28;20104;-66
2023/12/04 09:30:26;;;;;;;0.10;0.10;;;2.30;99.90;;;;;;5040618;28;20052;-66
2023/12/04 09:32:52;;;;;;;0.25;0.25;;;2.40;99.90;;;;;;5038611;28;20056;-66
2023/12/04 09:35:18;;;;;;;0.55;0.55;;;2.30;99.90;;;;;;5038235;28;20040;-66
2023/12/04 09:37:45;;;;;;;0.70;0.68;;;2.30;99.90;;;;;;5047060;28;20049;-66
2023/12/04 09:40:11;;;;;;;0.30;0.30;;;2.30;99.90;;;;;;5041501;28;20373;-66
2023/12/04 09:42:39;;;;;;;0.20;0.20;;;2.30;99.90;;;;;;5043003;28;20049;-66
2023/12/04 09:45:07;;;;;;;0.10;0.10;;;2.30;99.90;;;;;;5041880;28;20136;-66
2023/12/04 09:47:34;;;;;;;1.65;1.00;;;2.30;99.90;;;;;;5039503;28;20068;-66
2023/12/04 09:50:00;;;;;;;0.57;0.57;;;2.30;99.90;;;;;;5042658;28;20125;-66
2023/12/04 09:52:27;;;;;;;0.40;0.40;;;2.40;99.90;;;;;;5037061;28;20652;-66
2023/12/04 09:54:53;;;;;;;0.28;0.28;;;2.30;99.90;;;;;;5045973;28;20044;-66
2023/12/04 09:57:18;;;;;;;1.08;1.00;;;2.40;99.90;;;;;;5041942;28;20656;-66
2023/12/04 09:59:45;;;;;;;0.95;0.95;;;2.40;99.90;;;;;;5041385;28;20481;-66
2023/12/04 10:02:11;;;;;;;5.38;3.60;;;2.40;99.90;;;;;;5041960;28;20091;-66
2023/12/04 10:04:37;;;;;;;0.30;0.30;;;2.50;99.90;;;;;;5043828;28;20053;-66
2023/12/04 10:07:04;;;;;;;0.10;0.10;;;2.50;99.90;;;;;;5040971;28;20067;-67
2023/12/04 10:09:30;;;;;;;0.20;0.20;;;2.50;99.90;;;;;;5048511;28;20681;-67
2023/12/04 10:11:59;;;;;;;0.10;0.10;;;2.50;99.90;;;;;;5043157;28;20049;-66
2023/12/04 10:14:25;;;;;;;1.67;1.58;;;2.50;99.90;;;;;;5038491;28;20045;-66
2023/12/04 10:16:53;;;;;;;0.10;0.10;;;2.60;99.90;;;;;;5046495;28;20388;-66
2023/12/04 10:19:27;;;;;;;0.88;0.88;;;2.60;99.90;;;;;;5042155;28;20238;-66
2023/12/04 10:21:54;;;;;;;0.57;0.52;;;2.70;99.90;;;;;;5039434;28;20048;-66
2023/12/04 10:24:35;;;;;;;0.40;0.40;;;2.70;99.90;;;;;;5045310;28;20167;-67
2023/12/04 10:27:14;;;;;;;0.95;0.95;;;2.70;99.90;;;;;;5037444;28;20409;-66
2023/12/04 10:29:47;;;;;;;0.20;0.20;;;2.80;99.90;;;;;;5045207;28;20065;-66
2023/12/04 10:32:17;;;;;;;1.50;1.40;;;2.90;99.90;;;;;;5036583;28;20040;-66
2023/12/04 10:34:43;;;;;;;2.92;1.13;;;2.90;99.90;;;;;;5036257;28;20072;-67
2023/12/04 10:37:10;;;;;;;0.15;0.15;;;2.90;99.90;;;;;;5038929;28;20040;-66
2023/12/04 10:39:49;;;;;;;0.45;0.45;;;2.90;99.90;;;;;;5038982;28;20040;-66
2023/12/04 10:42:25;;;;;;;0.30;0.30;;;3.00;99.90;;;;;;5046235;28;20057;-66
2023/12/04 10:44:54;;;;;;;0.68;0.68;;;3.00;99.90;;;;;;5039293;28;20063;-66
2023/12/04 10:47:21;;;;;;;1.50;0.55;;;3.00;99.90;;;;;;5044824;28;20029;-67
2023/12/04 10:49:49;;;;;;;0.20;0.20;;;3.00;99.90;;;;;;5038072;28;20135;-66
2023/12/04 10:52:15;;;;;;;3.40;3.20;;;3.00;99.90;;;;;;5050946;28;20167;-66
2023/12/04 10:54:41;;;;;;;0.10;0.10;;;3.00;99.90;;;;;;5042049;28;20071;-66
2023/12/04 10:57:08;;;;;;;0.10;0.10;;;3.00;99.90;;;;;;5041788;28;20095;-66
2023/12/04 10:59:38;;;;;;;0.10;0.10;;;3.00;99.90;;;;;;5040034;28;20087;-66
2023/12/04 11:02:08;;;;;;;0.10;0.10;;;3.00;99.90;;;;;;5037535;28;20053;-66
2023/12/04 11:04:36;;;;;;;0.35;0.35;;;3.00;99.90;;;;;;5042585;28;20056;-66
2023/12/04 11:07:05;;;;;;;0.17;0.17;;;3.10;99.90;;;;;;5034461;28;20420;-66
2023/12/04 11:09:35;;;;;;;0.10;0.10;;;3.20;99.90;;;;;;5042487;28;20044;-67
2023/12/04 11:12:06;;;;;;;0.20;0.20;;;3.10;99.90;;;;;;5045338;28;20086;-66
2023/12/04 11:14:42;;;;;;;0.10;0.10;;;3.20;99.90;;;;;;5044589;28;20052;-67
2023/12/04 11:17:13;;;;;;;0.20;0.20;;;3.20;99.90;;;;;;5037871;28;20443;-66
2023/12/04 11:19:55;;;;;;;0.30;0.30;;;3.20;99.90;;;;;;5045776;28;20443;-66
2023/12/04 11:22:22;;;;;;;0.43;0.43;;;3.20;99.90;;;;;;5035607;28;20373;-66
2023/12/04 11:24:50;;;;;;;1.35;1.17;;;3.20;99.90;;;;;;5043141;28;20099;-67
2023/12/04 11:27:20;;;;;;;0.10;0.10;;;3.20;99.90;;;;;;5054775;28;20473;-67
2023/12/04 11:29:47;;;;;;;0.15;0.15;;;3.20;99.90;;;;;;5040684;28;20155;-66
2023/12/04 11:32:15;;;;;;;3.10;2.47;;;3.10;99.90;;;;;;5041150;28;20067;-66
2023/12/04 11:35:02;;;;;;;0.63;0.63;;;3.20;99.90;;;;;;5045273;28;20041;-67
2023/12/04 11:37:28;;;;;;;0.38;0.38;;;3.10;99.90;;;;;;5040122;28;20040;-66
2023/12/04 11:39:54;;;;;;;0.15;0.15;;;3.10;99.90;;;;;;5039289;28;20153;-66
2023/12/04 11:42:24;;;;;;;2.28;1.15;;;3.10;99.90;;;;;;5034309;28;20037;-67
2023/12/04 11:44:56;;;;;;;0.85;0.85;;;3.10;99.90;;;;;;5044068;28;20452;-66
2023/12/04 11:47:22;;;;;;;0.20;0.20;;;3.10;99.90;;;;;;5037614;28;20045;-67
2023/12/04 11:49:47;;;;;;;0.32;0.32;;;3.10;99.90;;;;;;5036176;28;20049;-66
2023/12/04 11:52:13;;;;;;;0.10;0.10;;;3.10;99.90;;;;;;5042188;28;20083;-67
2023/12/04 11:55:00;;;;;;;0.30;0.30;;;3.10;99.90;;;;;;5042263;28;20940;-66
2023/12/04 11:57:29;;;;;;;0.10;0.10;;;3.10;99.90;;;;;;5038139;28;20068;-66
2023/12/04 12:00:18;;;;;;;0.13;0.13;;;3.20;99.90;;;;;;5037994;28;20053;-66
2023/12/04 12:02:53;;;;;;;0.10;0.10;;;3.20;99.90;;;;;;5025439;28;20057;-66
2023/12/04 12:05:22;;;;;;;0.38;0.38;;;3.10;99.90;;;;;;5040645;28;20053;-66
2023/12/04 12:07:49;;;;;;;0.10;0.10;;;3.20;99.90;;;;;;5039593;28;20508;-66
2023/12/04 12:10:16;;;;;;;0.40;0.40;;;3.20;99.90;;;;;;5041454;28;20554;-66
2023/12/04 12:12:42;;;;;;;0.63;0.63;;;3.20;99.90;;;;;;5046564;28;20068;-66
2023/12/04 12:15:09;;;;;;;0.82;0.82;;;3.20;99.90;;;;;;5042461;28;20041;-66
2023/12/04 12:17:37;;;;;;;0.10;0.10;;;3.20;99.90;;;;;;5062539;28;20053;-66
2023/12/04 12:20:06;;;;;;;0.30;0.30;;;3.20;99.90;;;;;;5048876;28;20119;-66
2023/12/04 12:22:33;;;;;;;0.10;0.10;;;3.20;99.90;;;;;;5055586;28;20049;-67
2023/12/04 12:24:59;;;;;;;0.20;0.20;;;3.20;99.90;;;;;;5047715;28;20576;-66
2023/12/04 12:27:25;;;;;;;0.10;0.10;;;3.20;99.90;;;;;;5037374;28;20127;-66
2023/12/04 12:29:50;;;;;;;0.43;0.43;;;3.20;99.90;;;;;;5044711;28;20473;-67
2023/12/04 12:32:16;;;;;;;0.25;0.25;;;3.20;99.90;;;;;;5056357;28;20037;-67
2023/12/04 12:34:42;;;;;;;0.95;0.95;;;3.20;99.90;;;;;;5046822;28;20074;-66
2023/12/04 12:37:08;;;;;;;4.13;1.20;;;3.20;99.90;;;;;;5045110;28;20044;-66
2023/12/04 12:39:35;;;;;;;0.20;0.20;;;3.20;99.90;;;;;;5047652;28;20121;-67
2023/12/04 12:42:01;;;;;;;0.28;0.28;;;3.20;99.90;;;;;;5036072;28;20046;-67
2023/12/04 12:44:27;;;;;;;0.15;0.15;;;3.20;99.90;;;;;;5044092;28;20119;-67
2023/12/04 12:46:53;;;;;;;0.20;0.20;;;3.20;99.90;;;;;;5035259;28;20048;-66
2023/12/04 12:49:20;;;;;;;0.10;0.10;;;3.20;99.90;;;;;;5048052;28;20037;-66
2023/12/04 12:51:46;;;;;;;2.60;1.48;;;3.10;99.90;;;;;;5048452;28;20511;-66
2023/12/04 12:54:11;;;;;;;3.00;1.42;;;3.20;99.90;;;;;;5040469;28;20057;-66